Weather at L'Assomption Airport

Public forecast

Using degrees Celsius for public forecast. Weather courtesy of forecast.io.

Closest aviation weather report (METAR) to L'Assomption Airport

Closest report is Montréal / Saint-Hubert Airport, 18.4 nm (34.2 km) S.

2024/07/21 10:00 (retrieved 20 minutes ago)

CYHU 211000Z AUTO 00000KT 9SM CLR 13/12 A3005 RMK SLP177

Closest aviation forecast (TAF) to L'Assomption Airport

Closest forecast is Montréal / Saint-Hubert Airport, 18.4 nm (34.2 km) S.

2024/07/21 06:42 (retrieved 4 hours ago)

TAF CYHU 210540Z 2106/2206 01006KT P6SM BKN040 TEMPO 2106/2109 BKN020 OVC040 FM210900 01006KT P6SM FEW040 FM211400 30008KT P6SM SKC BECMG 2115/2117 29015KT BECMG 2200/2202 26006KT RMK FCST BASED ON AUTO OBS NXT FCST BY 211200Z